Details From KEYW - Key West Intl
To MUVR - JUAN GUALBERTO GOMEZ INTL
Flight Number -
Tags generated
Created
Modified
Stats Distance 93 nm / 172 km
Max Altitude 0 ft / 0 m
Waypoints 2
Social Downloads 1
Likes 0
Share VATSIM

Download

Looking for another format? Having issues loading an existing format? Contact us
Advertisement - Login to hide

Notes

Basic altitude profile: - Ascent Rate: 2500ft/min - Ascent Speed: 250kts - Cruise Altitude: 35000ft - Cruise Speed: 420kts - Descent Rate: 1500ft/min - Descent Speed: 250kts Options: - Use NATs: no - Use PACOTS: no - Use low airways: no - Use high airways: no

Route

KEYW MUVR

ID Type Via Altitude Latitude Longitude Leg Dist Tot Dist Heading (true) Name
O KEYW APT - 0 ft / 0 m 24.55612˚ -81.75955˚ - 0 nm - Key West Intl
O MUVR APT - 0 ft / 0 m 23.03444˚ -81.43527˚ 93 nm 93 nm 169° / 169° JUAN GUALBERTO GOMEZ INTL

Altitude Profile

Advertisement - Login to hide

KEYW

Details ICAO KEYW (EYW)
Name Key West Intl
Region United States
Timezone America/New_York (UTC-5.0)
Stats Elevation 2 ft / 1 m (AMSL)
Location 24.556124° -81.759546°
Runways 1
Magnetic Variation 5.545° W

METAR

KEYW 161053Z AUTO 08004KT 10SM CLR 19/16 A3014 RMK AO2 SLP206 T01890161

Decode

TAF

TAF AMD KEYW 160904Z 1609/1706 03006KT P6SM FEW250 FM161800 07011KT P6SM FEW028 SCT250 FM162100 08011KT P6SM SCT028 BKN250

Decode

Departure Runways

ID Width Length Bearing (true) Bearing (mag) Surface Threshold Offset Overrun Length
09 100 ft / 30 m 4,794 ft / 1,461 m 89.38° 94.93° Asphalt 151 ft / 46 m 0 ft / 0 m
27 100 ft / 30 m 4,794 ft / 1,461 m 269.39° 274.94° Asphalt 151 ft / 46 m 0 ft / 0 m

MUVR

Details ICAO MUVR (VRA)
Name JUAN GUALBERTO GOMEZ INTL
Region Cuba
Timezone America/Havana (UTC-5.0)
Stats Elevation 209 ft / 64 m (AMSL)
Location 23.034439° -81.435269°
Runways 1
Magnetic Variation 5.518° W

METAR

MUVR 161051Z 09007KT 9000 FEW025 21/20 Q1020

Decode

TAF

Not found

Destination Runways

ID Width Length Bearing (true) Bearing (mag) Surface Threshold Offset Overrun Length
06 148 ft / 45 m 11,494 ft / 3,503 m 55.47° 60.99° Asphalt 0 ft / 0 m 197 ft / 60 m
24 148 ft / 45 m 11,494 ft / 3,503 m 235.48° 241.00° Asphalt 0 ft / 0 m 197 ft / 60 m

Approach Navaids

Runway Type Ident Frequency Range Bearing (true) Bearing (mag) Slope Elevation
06 Localiser IVR 111.30 MHz 18 nm / 33 km 55.49° 61.01° - 209 ft / 64 m (AMSL)
06 Glidescope IVR 111.30 MHz 10 nm / 19 km 55.47° 60.99° 3.00° 209 ft / 64 m (AMSL)